sensor_id;sensor_type;location;lat;lon;timestamp;pressure;altitude;pressure_sealevel;temperature;humidity
16451;BME280;12243;42.708;23.310;2023-05-29T00:00:09;94805.84;;;14.76;100.00
16451;BME280;12243;42.708;23.310;2023-05-29T00:02:49;94801.41;;;14.69;100.00
16451;BME280;12243;42.708;23.310;2023-05-29T00:05:22;94810.38;;;14.66;100.00
16451;BME280;12243;42.708;23.310;2023-05-29T00:07:59;94806.16;;;14.73;100.00
16451;BME280;12243;42.708;23.310;2023-05-29T00:10:47;94809.13;;;14.79;100.00
16451;BME280;12243;42.708;23.310;2023-05-29T00:13:16;94805.53;;;14.80;100.00
16451;BME280;12243;42.708;23.310;2023-05-29T00:15:52;94803.09;;;14.86;100.00
16451;BME280;12243;42.708;23.310;2023-05-29T00:18:22;94815.31;;;14.69;100.00
16451;BME280;12243;42.708;23.310;2023-05-29T00:20:49;94812.69;;;14.61;100.00
16451;BME280;12243;42.708;23.310;2023-05-29T00:23:25;94814.31;;;14.62;100.00
16451;BME280;12243;42.708;23.310;2023-05-29T00:26:15;94810.69;;;14.55;100.00
16451;BME280;12243;42.708;23.310;2023-05-29T00:28:53;94811.66;;;14.54;100.00
16451;BME280;12243;42.708;23.310;2023-05-29T00:31:20;94806.94;;;14.40;100.00
16451;BME280;12243;42.708;23.310;2023-05-29T00:33:48;94808.63;;;14.41;100.00
16451;BME280;12243;42.708;23.310;2023-05-29T00:36:27;94807.94;;;14.39;100.00
16451;BME280;12243;42.708;23.310;2023-05-29T00:39:00;94801.38;;;14.35;100.00
16451;BME280;12243;42.708;23.310;2023-05-29T00:41:30;94802.00;;;14.28;100.00
16451;BME280;12243;42.708;23.310;2023-05-29T00:43:59;94808.91;;;14.29;100.00
16451;BME280;12243;42.708;23.310;2023-05-29T00:46:27;94803.66;;;14.29;100.00
16451;BME280;12243;42.708;23.310;2023-05-29T00:49:04;94803.66;;;14.29;100.00
16451;BME280;12243;42.708;23.310;2023-05-29T00:51:35;94797.06;;;14.25;100.00
16451;BME280;12243;42.708;23.310;2023-05-29T00:54:11;94802.31;;;14.25;100.00
16451;BME280;12243;42.708;23.310;2023-05-29T00:56:39;94794.00;;;14.30;100.00
16451;BME280;12243;42.708;23.310;2023-05-29T00:59:10;94800.09;;;14.39;100.00
16451;BME280;12243;42.708;23.310;2023-05-29T01:01:40;94797.78;;;14.36;100.00
16451;BME280;12243;42.708;23.310;2023-05-29T01:04:17;94797.78;;;14.36;100.00
16451;BME280;12243;42.708;23.310;2023-05-29T01:06:44;94800.69;;;14.33;100.00
16451;BME280;12243;42.708;23.310;2023-05-29T01:09:15;94799.34;;;14.20;100.00
16451;BME280;12243;42.708;23.310;2023-05-29T01:11:50;94794.25;;;14.19;100.00
16451;BME280;12243;42.708;23.310;2023-05-29T01:14:29;94796.34;;;14.15;100.00
16451;BME280;12243;42.708;23.310;2023-05-29T01:17:09;94798.16;;;14.15;100.00
16451;BME280;12243;42.708;23.310;2023-05-29T01:20:05;94800.31;;;14.19;100.00
16451;BME280;12243;42.708;23.310;2023-05-29T01:22:46;94803.25;;;14.16;100.00
16451;BME280;12243;42.708;23.310;2023-05-29T01:25:32;94817.94;;;14.09;100.00
16451;BME280;12243;42.708;23.310;2023-05-29T01:28:04;94815.97;;;14.11;100.00
16451;BME280;12243;42.708;23.310;2023-05-29T01:30:37;94812.75;;;14.17;100.00
16451;BME280;12243;42.708;23.310;2023-05-29T01:33:07;94812.91;;;14.16;100.00
16451;BME280;12243;42.708;23.310;2023-05-29T01:35:40;94804.38;;;14.14;100.00
16451;BME280;12243;42.708;23.310;2023-05-29T01:38:10;94803.50;;;14.05;100.00
16451;BME280;12243;42.708;23.310;2023-05-29T01:40:37;94797.75;;;14.01;100.00
16451;BME280;12243;42.708;23.310;2023-05-29T01:43:12;94803.63;;;13.95;100.00
16451;BME280;12243;42.708;23.310;2023-05-29T01:45:49;94802.94;;;13.93;100.00
16451;BME280;12243;42.708;23.310;2023-05-29T01:48:20;94805.56;;;13.93;100.00
16451;BME280;12243;42.708;23.310;2023-05-29T01:50:52;94798.00;;;13.90;100.00
16451;BME280;12243;42.708;23.310;2023-05-29T01:53:24;94793.97;;;13.96;100.00
16451;BME280;12243;42.708;23.310;2023-05-29T01:56:08;94786.94;;;13.96;100.00
16451;BME280;12243;42.708;23.310;2023-05-29T01:58:40;94784.47;;;13.95;100.00
16451;BME280;12243;42.708;23.310;2023-05-29T02:01:09;94789.03;;;13.93;100.00
16451;BME280;12243;42.708;23.310;2023-05-29T02:03:37;94784.47;;;13.95;100.00
16451;BME280;12243;42.708;23.310;2023-05-29T02:06:04;94789.72;;;13.95;100.00
16451;BME280;12243;42.708;23.310;2023-05-29T02:08:32;94796.59;;;13.96;100.00
16451;BME280;12243;42.708;23.310;2023-05-29T02:10:59;94791.19;;;13.97;100.00
16451;BME280;12243;42.708;23.310;2023-05-29T02:13:26;94791.84;;;13.99;100.00
16451;BME280;12243;42.708;23.310;2023-05-29T02:15:54;94787.28;;;14.01;100.00
16451;BME280;12243;42.708;23.310;2023-05-29T02:18:23;94791.56;;;14.02;100.00
16451;BME280;12243;42.708;23.310;2023-05-29T02:20:51;94780.91;;;14.04;100.00
16451;BME280;12243;42.708;23.310;2023-05-29T02:23:21;94791.03;;;13.99;100.00
16451;BME280;12243;42.708;23.310;2023-05-29T02:25:50;94788.06;;;13.94;100.00
16451;BME280;12243;42.708;23.310;2023-05-29T02:28:17;94791.84;;;13.99;100.00
16451;BME280;12243;42.708;23.310;2023-05-29T02:30:44;94792.94;;;13.89;100.00
16451;BME280;12243;42.708;23.310;2023-05-29T02:33:12;94796.16;;;13.82;100.00
16451;BME280;12243;42.708;23.310;2023-05-29T02:35:39;94792.94;;;13.89;100.00
16451;BME280;12243;42.708;23.310;2023-05-29T02:38:06;94797.88;;;13.92;100.00
16451;BME280;12243;42.708;23.310;2023-05-29T02:40:33;94799.13;;;13.88;100.00
16451;BME280;12243;42.708;23.310;2023-05-29T02:43:00;94807.63;;;13.81;100.00
16451;BME280;12243;42.708;23.310;2023-05-29T02:45:27;94805.34;;;13.87;100.00
16451;BME280;12243;42.708;23.310;2023-05-29T02:47:53;94809.00;;;13.94;100.00
16451;BME280;12243;42.708;23.310;2023-05-29T02:50:22;94799.19;;;13.96;100.00
16451;BME280;12243;42.708;23.310;2023-05-29T02:52:49;94793.88;;;13.88;100.00
16451;BME280;12243;42.708;23.310;2023-05-29T02:55:16;94796.16;;;13.82;100.00
16451;BME280;12243;42.708;23.310;2023-05-29T02:57:43;94787.69;;;13.89;100.00
16451;BME280;12243;42.708;23.310;2023-05-29T03:00:11;94791.44;;;13.86;100.00
16451;BME280;12243;42.708;23.310;2023-05-29T03:02:39;94798.81;;;13.91;100.00
16451;BME280;12243;42.708;23.310;2023-05-29T03:05:06;94802.13;;;13.93;100.00
16451;BME280;12243;42.708;23.310;2023-05-29T03:07:36;94797.91;;;14.00;100.00
16451;BME280;12243;42.708;23.310;2023-05-29T03:10:03;94792.06;;;14.06;100.00
16451;BME280;12243;42.708;23.310;2023-05-29T03:12:30;94796.53;;;14.14;100.00
16451;BME280;12243;42.708;23.310;2023-05-29T03:14:58;94798.66;;;14.18;100.00
16451;BME280;12243;42.708;23.310;2023-05-29T03:17:26;94801.03;;;14.29;100.00
16451;BME280;12243;42.708;23.310;2023-05-29T03:19:54;94800.88;;;14.31;100.00
16451;BME280;12243;42.708;23.310;2023-05-29T03:22:21;94795.47;;;14.33;100.00
16451;BME280;12243;42.708;23.310;2023-05-29T03:24:49;94805.19;;;14.40;100.00
16451;BME280;12243;42.708;23.310;2023-05-29T03:27:16;94800.59;;;14.42;100.00
16451;BME280;12243;42.708;23.310;2023-05-29T03:29:45;94805.34;;;14.47;100.00
16451;BME280;12243;42.708;23.310;2023-05-29T03:32:12;94810.31;;;14.50;100.00
16451;BME280;12243;42.708;23.310;2023-05-29T03:34:39;94813.00;;;14.58;100.00
16451;BME280;12243;42.708;23.310;2023-05-29T03:37:06;94809.38;;;14.59;100.00
16451;BME280;12243;42.708;23.310;2023-05-29T03:39:33;94817.06;;;14.61;100.00
16451;BME280;12243;42.708;23.310;2023-05-29T03:42:02;94817.56;;;14.64;100.00
16451;BME280;12243;42.708;23.310;2023-05-29T03:44:29;94815.50;;;14.76;100.00
16451;BME280;12243;42.708;23.310;2023-05-29T03:46:57;94825.22;;;14.92;100.00
16451;BME280;12243;42.708;23.310;2023-05-29T03:49:24;94824.41;;;15.66;100.00
16451;BME280;12243;42.708;23.310;2023-05-29T03:51:51;94828.47;;;16.18;100.00
16451;BME280;12243;42.708;23.310;2023-05-29T03:54:19;94832.88;;;16.26;100.00
16451;BME280;12243;42.708;23.310;2023-05-29T03:56:46;94838.13;;;16.17;100.00
16451;BME280;12243;42.708;23.310;2023-05-29T03:59:16;94830.28;;;16.09;100.00
16451;BME280;12243;42.708;23.310;2023-05-29T04:01:46;94841.09;;;16.06;100.00
16451;BME280;12243;42.708;23.310;2023-05-29T04:04:13;94843.59;;;16.08;100.00
16451;BME280;12243;42.708;23.310;2023-05-29T04:06:40;94843.09;;;16.04;100.00
16451;BME280;12243;42.708;23.310;2023-05-29T04:09:07;94849.16;;;16.05;100.00
16451;BME280;12243;42.708;23.310;2023-05-29T04:11:34;94857.34;;;16.10;100.00
16451;BME280;12243;42.708;23.310;2023-05-29T04:14:01;94857.53;;;16.08;100.00
16451;BME280;12243;42.708;23.310;2023-05-29T04:16:30;94858.03;;;15.95;100.00
16451;BME280;12243;42.708;23.310;2023-05-29T04:18:57;94853.94;;;15.85;100.00
16451;BME280;12243;42.708;23.310;2023-05-29T04:21:27;94856.25;;;15.80;100.00
16451;BME280;12243;42.708;23.310;2023-05-29T04:23:54;94852.94;;;15.78;100.00
16451;BME280;12243;42.708;23.310;2023-05-29T04:26:22;94852.28;;;15.84;100.00
16451;BME280;12243;42.708;23.310;2023-05-29T04:28:52;94853.28;;;15.91;100.00
16451;BME280;12243;42.708;23.310;2023-05-29T04:31:23;94850.66;;;15.91;100.00
16451;BME280;12243;42.708;23.310;2023-05-29T04:33:54;94847.22;;;15.90;100.00
16451;BME280;12243;42.708;23.310;2023-05-29T04:36:23;94856.72;;;16.00;100.00
16451;BME280;12243;42.708;23.310;2023-05-29T04:38:52;94861.47;;;15.96;100.00
16451;BME280;12243;42.708;23.310;2023-05-29T04:41:21;94856.72;;;16.00;100.00
16451;BME280;12243;42.708;23.310;2023-05-29T04:43:55;94866.38;;;16.07;100.00
16451;BME280;12243;42.708;23.310;2023-05-29T04:46:25;94860.00;;;16.18;100.00
16451;BME280;12243;42.708;23.310;2023-05-29T04:48:54;94864.41;;;16.17;100.00
16451;BME280;12243;42.708;23.310;2023-05-29T04:51:23;94865.88;;;16.20;100.00
16451;BME280;12243;42.708;23.310;2023-05-29T04:53:50;94870.50;;;16.18;100.00
16451;BME280;12243;42.708;23.310;2023-05-29T04:56:18;94867.69;;;16.19;100.00
16451;BME280;12243;42.708;23.310;2023-05-29T04:58:47;94878.88;;;16.13;100.00
16451;BME280;12243;42.708;23.310;2023-05-29T05:01:14;94876.25;;;16.05;100.00
16451;BME280;12243;42.708;23.310;2023-05-29T05:03:41;94882.66;;;16.03;100.00
16451;BME280;12243;42.708;23.310;2023-05-29T05:06:10;94890.03;;;16.07;100.00
16451;BME280;12243;42.708;23.310;2023-05-29T05:08:38;94888.06;;;16.09;100.00
16451;BME280;12243;42.708;23.310;2023-05-29T05:11:05;94892.81;;;16.14;100.00
16451;BME280;12243;42.708;23.310;2023-05-29T05:13:32;94902.34;;;16.23;100.00
16451;BME280;12243;42.708;23.310;2023-05-29T05:16:00;94908.06;;;16.35;100.00
16451;BME280;12243;42.708;23.310;2023-05-29T05:18:28;94906.44;;;16.42;100.00
16451;BME280;12243;42.708;23.310;2023-05-29T05:21:01;94900.84;;;16.53;100.00
16451;BME280;12243;42.708;23.310;2023-05-29T05:23:31;94905.88;;;16.71;100.00
16451;BME280;12243;42.708;23.310;2023-05-29T05:25:58;94899.63;;;16.72;100.00
16451;BME280;12243;42.708;23.310;2023-05-29T05:28:25;94894.22;;;16.65;100.00
16451;BME280;12243;42.708;23.310;2023-05-29T05:30:52;94903.44;;;16.78;100.00
16451;BME280;12243;42.708;23.310;2023-05-29T05:33:19;94902.59;;;16.85;100.00
16451;BME280;12243;42.708;23.310;2023-05-29T05:35:46;94901.09;;;16.91;100.00
16451;BME280;12243;42.708;23.310;2023-05-29T05:38:13;94905.66;;;17.05;100.00
16451;BME280;12243;42.708;23.310;2023-05-29T05:40:41;94903.94;;;17.21;98.44
16451;BME280;12243;42.708;23.310;2023-05-29T05:43:21;94906.78;;;17.42;96.14
16451;BME280;12243;42.708;23.310;2023-05-29T05:46:14;94912.91;;;17.66;93.65
16451;BME280;12243;42.708;23.310;2023-05-29T05:48:43;94911.47;;;18.32;91.71
16451;BME280;12243;42.708;23.310;2023-05-29T05:51:11;94904.22;;;18.49;89.26
16451;BME280;12243;42.708;23.310;2023-05-29T05:53:39;94907.00;;;18.32;90.23
16451;BME280;12243;42.708;23.310;2023-05-29T05:56:07;94907.59;;;18.20;92.00
16451;BME280;12243;42.708;23.310;2023-05-29T05:58:35;94905.25;;;18.25;90.37
16451;BME280;12243;42.708;23.310;2023-05-29T06:01:02;94903.56;;;18.32;90.50
16451;BME280;12243;42.708;23.310;2023-05-29T06:03:29;94907.94;;;18.54;90.08
16451;BME280;12243;42.708;23.310;2023-05-29T06:06:04;94899.09;;;18.85;87.52
16451;BME280;12243;42.708;23.310;2023-05-29T06:08:31;94910.19;;;19.25;86.06
16451;BME280;12243;42.708;23.310;2023-05-29T06:10:58;94910.31;;;20.11;82.51
16451;BME280;12243;42.708;23.310;2023-05-29T06:13:27;94899.69;;;20.75;78.47
16451;BME280;12243;42.708;23.310;2023-05-29T06:16:04;94903.22;;;21.30;76.06
16451;BME280;12243;42.708;23.310;2023-05-29T06:18:31;94905.38;;;21.48;75.14
16451;BME280;12243;42.708;23.310;2023-05-29T06:20:58;94902.94;;;21.12;76.07
16451;BME280;12243;42.708;23.310;2023-05-29T06:23:26;94912.81;;;20.62;78.19
16451;BME280;12243;42.708;23.310;2023-05-29T06:25:53;94912.66;;;20.70;79.12
16451;BME280;12243;42.708;23.310;2023-05-29T06:28:20;94914.84;;;20.94;78.69
16451;BME280;12243;42.708;23.310;2023-05-29T06:30:50;94917.41;;;21.16;77.86
16451;BME280;12243;42.708;23.310;2023-05-29T06:33:17;94911.03;;;22.00;75.13
16451;BME280;12243;42.708;23.310;2023-05-29T06:35:46;94912.50;;;22.89;72.04
16451;BME280;12243;42.708;23.310;2023-05-29T06:38:13;94908.13;;;23.41;68.71
16451;BME280;12243;42.708;23.310;2023-05-29T06:40:40;94905.34;;;23.67;67.55
16451;BME280;12243;42.708;23.310;2023-05-29T06:43:07;94910.97;;;23.91;66.26
16451;BME280;12243;42.708;23.310;2023-05-29T06:45:39;94909.03;;;24.05;66.84
16451;BME280;12243;42.708;23.310;2023-05-29T06:48:08;94912.63;;;24.23;66.54
16451;BME280;12243;42.708;23.310;2023-05-29T06:50:37;94921.50;;;24.11;65.97
16451;BME280;12243;42.708;23.310;2023-05-29T06:53:34;94912.19;;;23.88;67.30
16451;BME280;12243;42.708;23.310;2023-05-29T06:56:01;94906.59;;;23.71;67.33
16451;BME280;12243;42.708;23.310;2023-05-29T06:58:30;94910.94;;;23.46;68.75
16451;BME280;12243;42.708;23.310;2023-05-29T07:00:57;94907.31;;;23.34;68.96
16451;BME280;12243;42.708;23.310;2023-05-29T07:03:36;94915.88;;;23.42;69.69
16451;BME280;12243;42.708;23.310;2023-05-29T07:06:04;94910.22;;;23.77;68.22
16451;BME280;12243;42.708;23.310;2023-05-29T07:08:32;94910.84;;;23.79;68.45
16451;BME280;12243;42.708;23.310;2023-05-29T07:10:59;94907.78;;;23.75;67.20
16451;BME280;12243;42.708;23.310;2023-05-29T07:13:26;94912.72;;;23.65;67.73
16451;BME280;12243;42.708;23.310;2023-05-29T07:15:53;94908.28;;;23.46;68.49
16451;BME280;12243;42.708;23.310;2023-05-29T07:18:28;94912.41;;;23.35;68.86
16451;BME280;12243;42.708;23.310;2023-05-29T07:20:59;94909.72;;;23.48;69.24
16451;BME280;12243;42.708;23.310;2023-05-29T07:23:27;94907.28;;;23.92;67.59
16451;BME280;12243;42.708;23.310;2023-05-29T07:25:56;94913.22;;;24.25;67.83
16451;BME280;12243;42.708;23.310;2023-05-29T07:28:26;94903.13;;;24.41;65.58
16451;BME280;12243;42.708;23.310;2023-05-29T07:30:53;94902.13;;;24.60;65.13
16451;BME280;12243;42.708;23.310;2023-05-29T07:33:21;94902.56;;;24.57;64.97
16451;BME280;12243;42.708;23.310;2023-05-29T07:35:48;94904.63;;;24.23;66.00
16451;BME280;12243;42.708;23.310;2023-05-29T07:38:17;94896.50;;;24.68;65.39
16451;BME280;12243;42.708;23.310;2023-05-29T07:40:44;94905.38;;;24.62;63.80
16451;BME280;12243;42.708;23.310;2023-05-29T07:43:20;94906.63;;;24.85;62.44
16451;BME280;12243;42.708;23.310;2023-05-29T07:45:53;94903.19;;;24.78;62.78
16451;BME280;12243;42.708;23.310;2023-05-29T07:48:20;94912.81;;;25.04;63.66
16451;BME280;12243;42.708;23.310;2023-05-29T07:50:47;94902.75;;;24.81;62.59
16451;BME280;12243;42.708;23.310;2023-05-29T07:53:15;94902.06;;;24.42;62.06
16451;BME280;12243;42.708;23.310;2023-05-29T07:55:43;94896.78;;;23.59;64.72
16451;BME280;12243;42.708;23.310;2023-05-29T07:58:11;94894.09;;;23.65;65.94
16451;BME280;12243;42.708;23.310;2023-05-29T08:00:38;94888.41;;;24.00;65.40
16451;BME280;12243;42.708;23.310;2023-05-29T08:03:05;94892.81;;;24.69;64.13
16451;BME280;12243;42.708;23.310;2023-05-29T08:05:32;94898.06;;;25.01;59.81
16451;BME280;12243;42.708;23.310;2023-05-29T08:08:03;94900.25;;;24.86;60.78
16451;BME280;12243;42.708;23.310;2023-05-29T08:10:32;94898.69;;;24.78;61.36
16451;BME280;12243;42.708;23.310;2023-05-29T08:13:00;94892.97;;;24.75;61.57
16451;BME280;12243;42.708;23.310;2023-05-29T08:15:29;94885.75;;;24.57;62.29
16451;BME280;12243;42.708;23.310;2023-05-29T08:17:57;94894.84;;;24.49;62.41
16451;BME280;12243;42.708;23.310;2023-05-29T08:20:24;94896.38;;;24.32;63.21
16451;BME280;12243;42.708;23.310;2023-05-29T08:22:51;94899.28;;;23.92;64.16
16451;BME280;12243;42.708;23.310;2023-05-29T08:25:18;94906.03;;;23.43;65.84
16451;BME280;12243;42.708;23.310;2023-05-29T08:27:45;94897.56;;;23.08;67.33
16451;BME280;12243;42.708;23.310;2023-05-29T08:30:14;94899.00;;;23.10;67.74
16451;BME280;12243;42.708;23.310;2023-05-29T08:32:41;94900.41;;;23.19;67.92
16451;BME280;12243;42.708;23.310;2023-05-29T08:35:08;94906.50;;;23.33;67.39
16451;BME280;12243;42.708;23.310;2023-05-29T08:37:35;94902.03;;;23.20;67.28
16451;BME280;12243;42.708;23.310;2023-05-29T08:40:03;94907.13;;;23.28;66.79
16451;BME280;12243;42.708;23.310;2023-05-29T08:42:36;94895.72;;;23.66;65.74
16451;BME280;12243;42.708;23.310;2023-05-29T08:45:05;94894.50;;;24.07;62.39
16451;BME280;12243;42.708;23.310;2023-05-29T08:47:36;94903.59;;;24.24;60.93
16451;BME280;12243;42.708;23.310;2023-05-29T08:50:06;94895.63;;;24.24;61.06
16451;BME280;12243;42.708;23.310;2023-05-29T08:52:35;94893.22;;;24.48;59.96
16451;BME280;12243;42.708;23.310;2023-05-29T08:55:02;94887.41;;;25.01;57.44
16451;BME280;12243;42.708;23.310;2023-05-29T08:57:29;94878.94;;;25.78;55.31
16451;BME280;12243;42.708;23.310;2023-05-29T08:59:57;94881.91;;;26.30;52.63
16451;BME280;12243;42.708;23.310;2023-05-29T09:02:25;94891.44;;;26.37;51.13
16451;BME280;12243;42.708;23.310;2023-05-29T09:04:54;94878.50;;;25.81;50.36
16451;BME280;12243;42.708;23.310;2023-05-29T09:07:22;94869.22;;;25.16;52.05
16451;BME280;12243;42.708;23.310;2023-05-29T09:09:51;94867.78;;;24.95;52.93
16451;BME280;12243;42.708;23.310;2023-05-29T09:12:18;94860.31;;;25.04;52.96
16451;BME280;12243;42.708;23.310;2023-05-29T09:14:47;94859.41;;;25.47;52.06
16451;BME280;12243;42.708;23.310;2023-05-29T09:17:14;94862.50;;;25.62;52.34
16451;BME280;12243;42.708;23.310;2023-05-29T09:19:41;94863.00;;;25.23;52.52
16451;BME280;12243;42.708;23.310;2023-05-29T09:22:11;94864.66;;;24.80;53.48
16451;BME280;12243;42.708;23.310;2023-05-29T09:24:42;94858.25;;;24.38;55.05
16451;BME280;12243;42.708;23.310;2023-05-29T09:27:09;94850.13;;;24.01;55.55
16451;BME280;12243;42.708;23.310;2023-05-29T09:29:38;94852.56;;;23.71;56.99
16451;BME280;12243;42.708;23.310;2023-05-29T09:32:07;94835.50;;;24.17;56.01
16451;BME280;12243;42.708;23.310;2023-05-29T09:34:35;94833.56;;;24.74;54.97
16451;BME280;12243;42.708;23.310;2023-05-29T09:37:03;94838.84;;;25.36;52.73
16451;BME280;12243;42.708;23.310;2023-05-29T09:39:44;94838.41;;;25.99;52.22
16451;BME280;12243;42.708;23.310;2023-05-29T09:42:12;94824.44;;;26.39;50.87
16451;BME280;12243;42.708;23.310;2023-05-29T09:44:40;94832.38;;;26.04;50.93
16451;BME280;12243;42.708;23.310;2023-05-29T09:47:07;94830.69;;;25.49;51.69
16451;BME280;12243;42.708;23.310;2023-05-29T09:49:34;94826.78;;;25.82;50.27
16451;BME280;12243;42.708;23.310;2023-05-29T09:52:04;94830.59;;;25.86;51.51
16451;BME280;12243;42.708;23.310;2023-05-29T09:54:36;94826.50;;;26.13;50.83
16451;BME280;12243;42.708;23.310;2023-05-29T09:57:04;94817.56;;;25.78;51.15
16451;BME280;12243;42.708;23.310;2023-05-29T09:59:33;94822.97;;;25.41;52.73
16451;BME280;12243;42.708;23.310;2023-05-29T10:02:02;94816.09;;;25.33;52.30
16451;BME280;12243;42.708;23.310;2023-05-29T10:04:29;94817.03;;;25.57;50.99
16451;BME280;12243;42.708;23.310;2023-05-29T10:06:59;94807.19;;;25.70;52.81
16451;BME280;12243;42.708;23.310;2023-05-29T10:09:28;94805.19;;;25.83;52.26
16451;BME280;12243;42.708;23.310;2023-05-29T10:11:58;94814.94;;;25.89;53.64
16451;BME280;12243;42.708;23.310;2023-05-29T10:14:29;94822.25;;;25.94;51.58
16451;BME280;12243;42.708;23.310;2023-05-29T10:17:01;94825.88;;;25.88;50.16
16451;BME280;12243;42.708;23.310;2023-05-29T10:19:32;94812.75;;;25.38;51.99
16451;BME280;12243;42.708;23.310;2023-05-29T10:22:01;94804.50;;;25.58;51.03
16451;BME280;12243;42.708;23.310;2023-05-29T10:24:32;94807.34;;;25.45;51.46
16451;BME280;12243;42.708;23.310;2023-05-29T10:27:01;94820.66;;;25.63;51.88
16451;BME280;12243;42.708;23.310;2023-05-29T10:29:37;94811.84;;;26.04;50.83
16451;BME280;12243;42.708;23.310;2023-05-29T10:32:16;94804.47;;;26.30;48.01
16451;BME280;12243;42.708;23.310;2023-05-29T10:34:52;94804.63;;;25.93;48.92
16451;BME280;12243;42.708;23.310;2023-05-29T10:37:31;94799.69;;;25.78;48.30
16451;BME280;12243;42.708;23.310;2023-05-29T10:40:06;94798.63;;;26.09;47.36
16451;BME280;12243;42.708;23.310;2023-05-29T10:42:45;94811.47;;;26.54;47.16
16451;BME280;12243;42.708;23.310;2023-05-29T10:48:36;94808.97;;;26.18;46.37
16451;BME280;12243;42.708;23.310;2023-05-29T10:51:05;94798.19;;;25.71;47.31
16451;BME280;12243;42.708;23.310;2023-05-29T10:53:32;94787.09;;;25.55;48.44
16451;BME280;12243;42.708;23.310;2023-05-29T10:56:00;94792.19;;;25.08;47.68
16451;BME280;12243;42.708;23.310;2023-05-29T10:58:30;94775.44;;;25.38;48.79
16451;BME280;12243;42.708;23.310;2023-05-29T11:00:57;94776.88;;;25.82;47.84
16451;BME280;12243;42.708;23.310;2023-05-29T11:03:25;94774.25;;;26.06;48.20
16451;BME280;12243;42.708;23.310;2023-05-29T11:05:56;94762.56;;;26.30;47.76
16451;BME280;12243;42.708;23.310;2023-05-29T11:08:28;94762.19;;;26.74;46.12
16451;BME280;12243;42.708;23.310;2023-05-29T11:10:58;94756.09;;;27.14;45.91
16451;BME280;12243;42.708;23.310;2023-05-29T11:13:27;94765.38;;;27.51;44.45
16451;BME280;12243;42.708;23.310;2023-05-29T11:16:12;94767.47;;;27.78;42.09
16451;BME280;12243;42.708;23.310;2023-05-29T11:18:41;94767.22;;;27.51;42.89
16451;BME280;12243;42.708;23.310;2023-05-29T11:21:22;94767.34;;;27.27;43.67
16451;BME280;12243;42.708;23.310;2023-05-29T11:23:51;94759.38;;;26.92;45.66
16451;BME280;12243;42.708;23.310;2023-05-29T11:26:19;94751.97;;;26.82;46.23
16451;BME280;12243;42.708;23.310;2023-05-29T11:28:47;94751.66;;;27.07;44.68
16451;BME280;12243;42.708;23.310;2023-05-29T11:31:17;94749.72;;;27.03;44.74
16451;BME280;12243;42.708;23.310;2023-05-29T11:33:48;94753.66;;;27.12;44.73
16451;BME280;12243;42.708;23.310;2023-05-29T11:36:17;94757.28;;;26.94;44.69
16451;BME280;12243;42.708;23.310;2023-05-29T11:38:44;94762.19;;;26.74;45.29
16451;BME280;12243;42.708;23.310;2023-05-29T11:41:11;94753.81;;;26.11;46.03
16451;BME280;12243;42.708;23.310;2023-05-29T11:43:38;94750.50;;;25.74;47.41
16451;BME280;12243;42.708;23.310;2023-05-29T11:46:16;94747.69;;;25.57;48.16
16451;BME280;12243;42.708;23.310;2023-05-29T11:48:47;94745.81;;;25.58;47.65
16451;BME280;12243;42.708;23.310;2023-05-29T11:51:14;94750.00;;;25.65;48.60
16451;BME280;12243;42.708;23.310;2023-05-29T11:53:41;94747.38;;;24.87;50.97
16451;BME280;12243;42.708;23.310;2023-05-29T11:56:09;94748.88;;;24.39;52.68
16451;BME280;12243;42.708;23.310;2023-05-29T11:58:37;94750.31;;;23.92;54.65
16451;BME280;12243;42.708;23.310;2023-05-29T12:01:07;94741.44;;;23.80;55.56
16451;BME280;12243;42.708;23.310;2023-05-29T12:03:41;94744.63;;;23.88;55.60
16451;BME280;12243;42.708;23.310;2023-05-29T12:06:11;94741.91;;;23.63;56.13
16451;BME280;12243;42.708;23.310;2023-05-29T12:08:38;94744.63;;;23.25;58.97
16451;BME280;12243;42.708;23.310;2023-05-29T12:11:06;94759.13;;;22.77;61.83
16451;BME280;12243;42.708;23.310;2023-05-29T12:13:33;94763.53;;;22.39;65.58
16451;BME280;12243;42.708;23.310;2023-05-29T12:16:02;94779.25;;;21.94;74.60
16451;BME280;12243;42.708;23.310;2023-05-29T12:18:30;94779.72;;;20.33;89.83
16451;BME280;12243;42.708;23.310;2023-05-29T12:21:01;94782.66;;;19.67;99.73
16451;BME280;12243;42.708;23.310;2023-05-29T12:23:29;94791.28;;;19.18;100.00
16451;BME280;12243;42.708;23.310;2023-05-29T12:25:57;94796.09;;;18.93;100.00
16451;BME280;12243;42.708;23.310;2023-05-29T12:28:25;94796.09;;;18.78;100.00
16451;BME280;12243;42.708;23.310;2023-05-29T12:30:58;94799.53;;;18.79;100.00
16451;BME280;12243;42.708;23.310;2023-05-29T12:33:27;94804.25;;;18.98;100.00
16451;BME280;12243;42.708;23.310;2023-05-29T12:35:54;94800.91;;;19.26;100.00
16451;BME280;12243;42.708;23.310;2023-05-29T12:38:23;94802.19;;;19.51;100.00
16451;BME280;12243;42.708;23.310;2023-05-29T12:40:52;94799.84;;;19.78;99.83
16451;BME280;12243;42.708;23.310;2023-05-29T12:43:20;94802.06;;;20.03;96.65
16451;BME280;12243;42.708;23.310;2023-05-29T12:45:54;94797.31;;;20.19;94.42
16451;BME280;12243;42.708;23.310;2023-05-29T12:48:26;94799.47;;;20.37;90.92
16451;BME280;12243;42.708;23.310;2023-05-29T12:50:53;94794.91;;;20.53;92.03
16451;BME280;12243;42.708;23.310;2023-05-29T12:53:20;94794.00;;;20.74;92.63
16451;BME280;12243;42.708;23.310;2023-05-29T12:55:48;94791.25;;;21.02;84.70
16451;BME280;12243;42.708;23.310;2023-05-29T12:58:15;94805.22;;;21.24;83.67
16451;BME280;12243;42.708;23.310;2023-05-29T13:00:43;94799.38;;;21.42;84.03